1993 Trip

[Note that this log has been compiled from the narrative,and is not original material]

Day One
Location Clock Time Riding Rest Distance
Home on Grand Boul. 0 0 0h00 0
Back River (Laval) 1h00 1h00 0h00 12km
Rosemere 1h00 1h00 0h00 13km
St. Jerome 2h00 1h45 0h15 29km
River Stop 1h00 0h30 0h30 5km
Prevost 0h40 0h30 0h10 7km
Mont Rolland 1h00* 1h00 0h00 13km
Totals   6h40 5h45 1h00 79km
Average Speed 14km/hr
Cumulative Forward
Distance Travelled
79km
 

Day One
Location Clock Time Riding Rest Distance
Awakening on Trail *08:00 0 0 0h00 0
Back to Ste. Adele *08:15 0h15 0h15 0h00 2km
Breakfast *08:45 0h30 0h00 0h30 0km
Explore Ste. Adele *09:45 1h00 0h30 0h30 4km
Explore Falls *10:45 1h00 0h00 1h00 0km
To Ste. Marguerite *11:45 1h00 1h00 0h15 7km
To the top *12:30 0h45 1h30 0h15 3km
To Mont Rolland *13:30 1h00 1h00 0h00 10km
To St. Jerome *16:30 1h00 1h00 0h00 25km
Park Detour *17:00 0h30 0h30 0h00 2km
To Montreal *21:00 4h00 4h00 0h00 54km
Totals   11h15 9h45 1h30 107km
Average Speed 11km/hr
Cumulative Forward
Distance Travelled
186km
 

1995 Trip

[Note that this log has been compiled from the narrative,and is not original material]

Day One
Location Clock Time Riding Rest Distance
St. Jerome 10:00 0 0 0h00 0
Prevost 11:20 1h20 1h10 0h10 14km
Piedmont 11:45 0h25 0h25 0h00 7km
Mont Rolland 12:15 0h30 0h30 0h00 4km
Ste. Marguerite 13:00 0h45 0h45 0h00 5km
(Rest) 13:30 0h30 0h00 0h40 0
Summit 14:00 0h30 0h15 0h15 3km
Val Morin 14:15 0h15 0h15 0h00 3km
Val David 14:30 0h15 0h15 0h00 4km
(Lunch) 15:00 0h30 0h00 0h30 0
Ste. Agathe 15:30 0h30 0h30 0h00 7km
Ivry-sur-le-lac 16:00 0h30 0h30 0h00 6km
Summit: Lac Carré 17:30 1h30 1h30 0h00 15km
St. Jovite 18:30 1h00 1h00 0h00 10km
Totals   8h35 7h00 1h35 80km
Average Speed 11.5km/hr
Cumulative Forward
Distance Travelled
80km
 

Day Two
Location Clock Time Riding Rest Distance
St. Jovite 09:00 0 0 0h00 0
Mont Tremblant Village10:00 1h00 1h00 0h00 9km
Ride along Trail 10:30 0h30 0h30 0h00 4km
Mont Tremblant Lodge 12:15 1h45 0h45 1h00 10km
St. Jovite 12:45 0h30 0h30 0h00 9km
(Hot Soup Stop) 13:15 0h30 0h00 0h30 0
St. Faustin 14:00 0h45 0h45 0h00 5km
Summit 15:15 1h15 1h00 0h15 8km
Ste. Agathe 16:55 1h40 1h40 0h00 18km
Val David 17:20 0h25 0h15 0h10 6km
(Hot Soup Stop) 17:40 0h20 0h00 0h20 0
Summit 18:15 0h35 0h30 0h00 6km
Mont Rolland 18:50 0h40 0h40 0h00 6km
Totals   10h00 7h45 2h15 77km
Average Speed 10km/hr
Cumulative Forward
Distance Travelled
157km
 

1998 Trip

[Note that this log has been compiled from the narrative,and is not original material]

Day One
Location Clock Time Riding Rest Distance
Home 06:45 0 0 0h00 0
Cartierville 07:45 1h00 1h00 0h00 12km
Rosemere 08:50 1h05 1h05 0h00 13km
St. Janvier 09:45 0h55 0h55 0h00 ?km
St. Jerome 10:30 0h45 0h45 0h00 29km
(Rest) 11:50 1h20 0h00 1h20 0
Prévost 13:00 1h10 1h00 0h10 13km
(Lunch) 13:25 0h25 0h00 0h25 0
Mont Rolland 14:30 1h05 1h05 0h00 12km
Summit 15:50 1h20 1h00 0h20 8km
Ste. Agathe 17:00 1h10 1h10 0h00 15km
Totals   10h15 8h00 2h15 102km
Average Speed 13km/hr
Cumulative Forward
Distance Travelled
102km
 

Day Two
Location Clock Time Riding Rest Distance
Ste. Agathe 08:40 0 0 0h00 0
Hwy 117 Crossing 09:40 1h00 1h00 0h00 7km
Summit 10:50 1h10 1h10 0h00 13km
(Rest) 11:10 0h20 0h00 0h20 0
St. Jovite 12:15 1h05 1h05 0h00 10km
(Lunch) 12:40 0h25 0h00 0h25 0
Diable River Crossing 13:00 0h20 0h20 0h00 ?km
Mont Tremblant 13:30 0h30 0h30 0h00 ?km
(Pause) 13:40 0h10 0h00 0h10 0
La Conception Station 14:30 0h50 0h50 0h00 ?km
100km Marker 14:45 0h15 0h15 0h00 ?km
(Achilée Millefeuille)14:55 0h10 0h00 0h10 0
Labelle 15:20 0h25 0h25 0h00 29km
(Rest) 15:40 0h20 0h00 0h20 0
L'Annonciation 17:30 1h50 1h30 0h20 21km
Totals   8h30 7h05 1h25 80km
Average Speed 11.5km/hr
Cumulative Forward
Distance Travelled
182km
 

Day Three
Location Clock Time Riding Rest Distance
L'Annonciation 08:15 0 0 0h00 0
Nomininque Station 10:00 1h45 1h30 0h15 18km
Lac Saguay 12:15 2h15 2h00 0h15 17km
(Lunch) 13:00 0h45 0h00 0h45 0
Val Barrette 15:15 2h15 2h15 0h00 24km
Lac des Ecorces 15:50 0h35 0h35 0h00 5km
Totals   7h30 6h15 1h15 64km
Average Speed 10km/hr
Cumulative Forward
Distance Travelled
246km
 

Day Four
Location Clock Time Riding Rest Distance
Lac des Ecorces 08:00 0 0 0h00 0
Mont Laurier 09:00 1h00 0h50 0h10 9km
Totals   1h00 0h50 0h10 9km
Average Speed 11km/hr
Cumulative Forward
Distance Travelled
255km